Drexel Gardens, Indiana
Current Conditions -  °F | °C
As of 11:54 AM on Friday 24 Oct 2014 (Local Time) from KIND Reporting Station
Broken Clouds Broken Clouds  
Wind Chill: 54°   Ceiling: 2500
Heat Index: 54°   Visibility: 10mi
Dew Point: 45°   Wind: 9mph
Humidity: 72%   Direction: 240°WSW
Pressure: 30.1"   Gusts: NA
Location:  39.7251°N, 86.264°W
Report Text: KIND 241554Z 24008KT 10SM BKN025 BKN085 12/07 A3010 RMK AO2 SLP192 T01220072
Loading
Personal Weather Stations






























Interactive Weather Map
Tropical Storm Tracking
New forecast layout! Learn more

10-Day Weather Forecast

Advertisements
Track Severe Weather on mobile